sensor_id;sensor_type;location;lat;lon;timestamp;temperature;humidity
36442;DHT22;64346;50.820;16.274;2023-06-26T00:00:31;17.00;99.90
36442;DHT22;64346;50.820;16.274;2023-06-26T00:03:18;17.00;99.90
36442;DHT22;64346;50.820;16.274;2023-06-26T00:05:46;17.00;99.90
36442;DHT22;64346;50.820;16.274;2023-06-26T00:08:13;17.00;99.90
36442;DHT22;64346;50.820;16.274;2023-06-26T00:10:40;16.90;99.90
36442;DHT22;64346;50.820;16.274;2023-06-26T00:13:10;16.90;99.90
36442;DHT22;64346;50.820;16.274;2023-06-26T00:15:38;16.90;99.90
36442;DHT22;64346;50.820;16.274;2023-06-26T00:18:05;16.90;99.90
36442;DHT22;64346;50.820;16.274;2023-06-26T00:20:35;16.90;99.90
36442;DHT22;64346;50.820;16.274;2023-06-26T00:23:05;16.90;99.90
36442;DHT22;64346;50.820;16.274;2023-06-26T00:25:33;16.90;99.90
36442;DHT22;64346;50.820;16.274;2023-06-26T00:28:00;16.90;99.90
36442;DHT22;64346;50.820;16.274;2023-06-26T00:30:30;16.80;99.90
36442;DHT22;64346;50.820;16.274;2023-06-26T00:32:57;16.90;99.90
36442;DHT22;64346;50.820;16.274;2023-06-26T00:35:25;16.80;99.90
36442;DHT22;64346;50.820;16.274;2023-06-26T00:37:54;16.90;99.90
36442;DHT22;64346;50.820;16.274;2023-06-26T00:40:24;16.80;99.90
36442;DHT22;64346;50.820;16.274;2023-06-26T00:42:59;16.80;99.90
36442;DHT22;64346;50.820;16.274;2023-06-26T00:45:26;16.80;99.90
36442;DHT22;64346;50.820;16.274;2023-06-26T00:48:09;16.80;99.90
36442;DHT22;64346;50.820;16.274;2023-06-26T00:50:37;16.80;99.90
36442;DHT22;64346;50.820;16.274;2023-06-26T00:53:05;16.70;99.90
36442;DHT22;64346;50.820;16.274;2023-06-26T00:55:32;16.70;99.90
36442;DHT22;64346;50.820;16.274;2023-06-26T00:58:00;16.70;99.90
36442;DHT22;64346;50.820;16.274;2023-06-26T01:00:27;16.70;99.90
36442;DHT22;64346;50.820;16.274;2023-06-26T01:02:57;16.70;99.90
36442;DHT22;64346;50.820;16.274;2023-06-26T01:05:27;16.70;99.90
36442;DHT22;64346;50.820;16.274;2023-06-26T01:07:57;16.70;99.90
36442;DHT22;64346;50.820;16.274;2023-06-26T01:10:27;16.60;99.90
36442;DHT22;64346;50.820;16.274;2023-06-26T01:12:57;16.60;99.90
36442;DHT22;64346;50.820;16.274;2023-06-26T01:15:24;16.60;99.90
36442;DHT22;64346;50.820;16.274;2023-06-26T01:17:52;16.60;99.90
36442;DHT22;64346;50.820;16.274;2023-06-26T01:20:22;16.50;99.90
36442;DHT22;64346;50.820;16.274;2023-06-26T01:25:37;16.50;99.90
36442;DHT22;64346;50.820;16.274;2023-06-26T01:28:11;16.50;99.90
36442;DHT22;64346;50.820;16.274;2023-06-26T01:30:45;16.40;99.90
36442;DHT22;64346;50.820;16.274;2023-06-26T01:33:13;16.40;99.90
36442;DHT22;64346;50.820;16.274;2023-06-26T01:35:41;16.40;99.90
36442;DHT22;64346;50.820;16.274;2023-06-26T01:38:13;16.40;99.90
36442;DHT22;64346;50.820;16.274;2023-06-26T01:40:40;16.40;99.90
36442;DHT22;64346;50.820;16.274;2023-06-26T01:46:06;16.20;99.90
36442;DHT22;64346;50.820;16.274;2023-06-26T01:48:40;16.20;99.90
36442;DHT22;64346;50.820;16.274;2023-06-26T01:51:11;16.10;99.90
36442;DHT22;64346;50.820;16.274;2023-06-26T01:53:45;16.20;99.90
36442;DHT22;64346;50.820;16.274;2023-06-26T01:56:13;16.20;99.90
36442;DHT22;64346;50.820;16.274;2023-06-26T01:58:43;16.20;99.90
36442;DHT22;64346;50.820;16.274;2023-06-26T02:01:14;16.20;99.90
36442;DHT22;64346;50.820;16.274;2023-06-26T02:03:44;16.10;99.90
36442;DHT22;64346;50.820;16.274;2023-06-26T02:06:11;16.10;99.90
36442;DHT22;64346;50.820;16.274;2023-06-26T02:08:39;16.10;99.90
36442;DHT22;64346;50.820;16.274;2023-06-26T02:11:09;16.00;99.90
36442;DHT22;64346;50.820;16.274;2023-06-26T02:13:37;16.00;99.90
36442;DHT22;64346;50.820;16.274;2023-06-26T02:16:04;16.00;99.90
36442;DHT22;64346;50.820;16.274;2023-06-26T02:18:31;16.00;99.90
36442;DHT22;64346;50.820;16.274;2023-06-26T02:20:58;16.00;99.90
36442;DHT22;64346;50.820;16.274;2023-06-26T02:23:26;16.00;99.90
36442;DHT22;64346;50.820;16.274;2023-06-26T02:25:53;15.90;99.90
36442;DHT22;64346;50.820;16.274;2023-06-26T02:28:21;15.90;99.90
36442;DHT22;64346;50.820;16.274;2023-06-26T02:30:48;15.90;99.90
36442;DHT22;64346;50.820;16.274;2023-06-26T02:33:16;15.90;99.90
36442;DHT22;64346;50.820;16.274;2023-06-26T02:35:43;15.90;99.90
36442;DHT22;64346;50.820;16.274;2023-06-26T02:38:11;15.90;99.90
36442;DHT22;64346;50.820;16.274;2023-06-26T02:40:40;15.80;99.90
36442;DHT22;64346;50.820;16.274;2023-06-26T02:43:08;15.80;99.90
36442;DHT22;64346;50.820;16.274;2023-06-26T02:45:35;15.80;99.90
36442;DHT22;64346;50.820;16.274;2023-06-26T02:48:03;15.80;99.90
36442;DHT22;64346;50.820;16.274;2023-06-26T02:50:32;15.80;99.90
36442;DHT22;64346;50.820;16.274;2023-06-26T02:53:00;15.80;99.90
36442;DHT22;64346;50.820;16.274;2023-06-26T02:55:33;15.80;99.90
36442;DHT22;64346;50.820;16.274;2023-06-26T02:58:00;15.80;99.90
36442;DHT22;64346;50.820;16.274;2023-06-26T03:00:27;15.90;99.90
36442;DHT22;64346;50.820;16.274;2023-06-26T03:02:55;15.90;99.90
36442;DHT22;64346;50.820;16.274;2023-06-26T03:05:22;15.90;99.90
36442;DHT22;64346;50.820;16.274;2023-06-26T03:07:55;15.80;99.90
36442;DHT22;64346;50.820;16.274;2023-06-26T03:10:22;15.90;99.90
36442;DHT22;64346;50.820;16.274;2023-06-26T03:12:52;15.90;99.90
36442;DHT22;64346;50.820;16.274;2023-06-26T03:15:19;15.90;99.90
36442;DHT22;64346;50.820;16.274;2023-06-26T03:17:47;16.00;99.90
36442;DHT22;64346;50.820;16.274;2023-06-26T03:20:14;16.10;99.90
36442;DHT22;64346;50.820;16.274;2023-06-26T03:22:42;16.20;99.90
36442;DHT22;64346;50.820;16.274;2023-06-26T03:25:09;16.20;99.90
36442;DHT22;64346;50.820;16.274;2023-06-26T03:27:36;16.30;99.90
36442;DHT22;64346;50.820;16.274;2023-06-26T03:30:04;16.40;99.90
36442;DHT22;64346;50.820;16.274;2023-06-26T03:32:33;16.60;99.90
36442;DHT22;64346;50.820;16.274;2023-06-26T03:35:01;16.70;99.90
36442;DHT22;64346;50.820;16.274;2023-06-26T03:37:30;16.90;99.90
36442;DHT22;64346;50.820;16.274;2023-06-26T03:39:57;17.10;99.90
36442;DHT22;64346;50.820;16.274;2023-06-26T03:42:25;17.30;99.90
36442;DHT22;64346;50.820;16.274;2023-06-26T03:44:54;17.40;99.90
36442;DHT22;64346;50.820;16.274;2023-06-26T03:47:22;17.60;99.90
36442;DHT22;64346;50.820;16.274;2023-06-26T03:49:49;17.80;99.90
36442;DHT22;64346;50.820;16.274;2023-06-26T03:52:16;18.00;99.90
36442;DHT22;64346;50.820;16.274;2023-06-26T03:54:46;18.10;99.90
36442;DHT22;64346;50.820;16.274;2023-06-26T03:57:16;18.40;99.90
36442;DHT22;64346;50.820;16.274;2023-06-26T03:59:45;18.60;99.90
36442;DHT22;64346;50.820;16.274;2023-06-26T04:02:13;18.80;99.90
36442;DHT22;64346;50.820;16.274;2023-06-26T04:04:40;19.10;99.90
36442;DHT22;64346;50.820;16.274;2023-06-26T04:07:08;19.40;99.90
36442;DHT22;64346;50.820;16.274;2023-06-26T04:09:35;19.60;99.90
36442;DHT22;64346;50.820;16.274;2023-06-26T04:12:03;20.00;99.90
36442;DHT22;64346;50.820;16.274;2023-06-26T04:14:30;20.30;99.90
36442;DHT22;64346;50.820;16.274;2023-06-26T04:16:59;20.50;99.90
36442;DHT22;64346;50.820;16.274;2023-06-26T04:19:26;20.80;99.90
36442;DHT22;64346;50.820;16.274;2023-06-26T04:21:53;21.10;99.90
36442;DHT22;64346;50.820;16.274;2023-06-26T04:24:21;21.40;99.90
36442;DHT22;64346;50.820;16.274;2023-06-26T04:26:48;21.70;99.90
36442;DHT22;64346;50.820;16.274;2023-06-26T04:29:18;22.00;99.90
36442;DHT22;64346;50.820;16.274;2023-06-26T04:31:45;22.30;99.90
36442;DHT22;64346;50.820;16.274;2023-06-26T04:34:13;22.50;99.90
36442;DHT22;64346;50.820;16.274;2023-06-26T04:36:41;22.80;99.90
36442;DHT22;64346;50.820;16.274;2023-06-26T04:39:08;23.00;99.90
36442;DHT22;64346;50.820;16.274;2023-06-26T04:41:35;23.30;99.90
36442;DHT22;64346;50.820;16.274;2023-06-26T04:44:03;23.50;99.90
36442;DHT22;64346;50.820;16.274;2023-06-26T04:46:30;23.90;99.90
36442;DHT22;64346;50.820;16.274;2023-06-26T04:48:58;24.10;99.90
36442;DHT22;64346;50.820;16.274;2023-06-26T04:51:28;24.40;99.90
36442;DHT22;64346;50.820;16.274;2023-06-26T04:53:58;24.60;99.90
36442;DHT22;64346;50.820;16.274;2023-06-26T04:56:25;24.80;99.90
36442;DHT22;64346;50.820;16.274;2023-06-26T04:58:52;25.10;99.90
36442;DHT22;64346;50.820;16.274;2023-06-26T05:01:22;25.30;99.90
36442;DHT22;64346;50.820;16.274;2023-06-26T05:03:49;25.60;99.90
36442;DHT22;64346;50.820;16.274;2023-06-26T05:06:17;25.80;99.90
36442;DHT22;64346;50.820;16.274;2023-06-26T05:08:44;26.20;99.90
36442;DHT22;64346;50.820;16.274;2023-06-26T05:11:11;26.50;99.90
36442;DHT22;64346;50.820;16.274;2023-06-26T05:13:43;26.80;99.90
36442;DHT22;64346;50.820;16.274;2023-06-26T05:16:13;27.10;99.90
36442;DHT22;64346;50.820;16.274;2023-06-26T05:18:43;27.50;99.50
36442;DHT22;64346;50.820;16.274;2023-06-26T05:21:13;27.70;98.90
36442;DHT22;64346;50.820;16.274;2023-06-26T05:23:41;28.00;98.40
36442;DHT22;64346;50.820;16.274;2023-06-26T05:26:11;28.30;98.00
36442;DHT22;64346;50.820;16.274;2023-06-26T05:28:39;28.60;97.50
36442;DHT22;64346;50.820;16.274;2023-06-26T05:31:06;28.80;97.20
36442;DHT22;64346;50.820;16.274;2023-06-26T05:33:35;29.10;96.20
36442;DHT22;64346;50.820;16.274;2023-06-26T05:36:06;29.30;95.70
36442;DHT22;64346;50.820;16.274;2023-06-26T05:38:34;29.40;95.20
36442;DHT22;64346;50.820;16.274;2023-06-26T05:41:02;29.60;94.50
36442;DHT22;64346;50.820;16.274;2023-06-26T05:43:29;29.70;94.40
36442;DHT22;64346;50.820;16.274;2023-06-26T05:45:57;30.10;94.10
36442;DHT22;64346;50.820;16.274;2023-06-26T05:48:24;30.80;93.40
36442;DHT22;64346;50.820;16.274;2023-06-26T05:50:52;31.60;92.10
36442;DHT22;64346;50.820;16.274;2023-06-26T05:53:24;32.50;90.90
36442;DHT22;64346;50.820;16.274;2023-06-26T05:55:52;33.40;88.40
36442;DHT22;64346;50.820;16.274;2023-06-26T05:58:24;34.20;83.90
36442;DHT22;64346;50.820;16.274;2023-06-26T06:00:53;34.90;81.10
36442;DHT22;64346;50.820;16.274;2023-06-26T06:03:22;35.60;78.40
36442;DHT22;64346;50.820;16.274;2023-06-26T06:05:50;36.20;75.30
36442;DHT22;64346;50.820;16.274;2023-06-26T06:08:20;36.70;73.40
36442;DHT22;64346;50.820;16.274;2023-06-26T06:10:50;37.30;71.30
36442;DHT22;64346;50.820;16.274;2023-06-26T06:13:17;37.80;67.60
36442;DHT22;64346;50.820;16.274;2023-06-26T06:15:45;38.50;64.60
36442;DHT22;64346;50.820;16.274;2023-06-26T06:18:12;38.90;63.50
36442;DHT22;64346;50.820;16.274;2023-06-26T06:20:40;39.10;61.10
36442;DHT22;64346;50.820;16.274;2023-06-26T06:23:07;39.40;59.90
36442;DHT22;64346;50.820;16.274;2023-06-26T06:25:35;39.60;57.40
36442;DHT22;64346;50.820;16.274;2023-06-26T06:28:06;39.50;58.00
36442;DHT22;64346;50.820;16.274;2023-06-26T06:30:34;39.80;56.70
36442;DHT22;64346;50.820;16.274;2023-06-26T06:33:14;40.10;56.00
36442;DHT22;64346;50.820;16.274;2023-06-26T06:35:42;39.40;55.30
36442;DHT22;64346;50.820;16.274;2023-06-26T06:38:11;39.50;56.20
36442;DHT22;64346;50.820;16.274;2023-06-26T06:40:39;39.80;55.90
36442;DHT22;64346;50.820;16.274;2023-06-26T06:43:07;40.20;55.30
36442;DHT22;64346;50.820;16.274;2023-06-26T06:45:35;40.40;54.20
36442;DHT22;64346;50.820;16.274;2023-06-26T06:48:04;40.60;53.50
36442;DHT22;64346;50.820;16.274;2023-06-26T06:50:32;40.90;53.00
36442;DHT22;64346;50.820;16.274;2023-06-26T06:52:59;41.00;53.10
36442;DHT22;64346;50.820;16.274;2023-06-26T06:55:27;41.30;53.20
36442;DHT22;64346;50.820;16.274;2023-06-26T06:57:54;41.50;52.10
36442;DHT22;64346;50.820;16.274;2023-06-26T07:00:24;41.50;51.20
36442;DHT22;64346;50.820;16.274;2023-06-26T07:02:52;41.20;51.20
36442;DHT22;64346;50.820;16.274;2023-06-26T07:05:23;41.00;50.70
36442;DHT22;64346;50.820;16.274;2023-06-26T07:07:54;40.60;51.60
36442;DHT22;64346;50.820;16.274;2023-06-26T07:10:22;40.50;52.20
36442;DHT22;64346;50.820;16.274;2023-06-26T07:12:49;40.30;51.60
36442;DHT22;64346;50.820;16.274;2023-06-26T07:15:17;40.10;52.30
36442;DHT22;64346;50.820;16.274;2023-06-26T07:17:44;40.00;52.20
36442;DHT22;64346;50.820;16.274;2023-06-26T07:20:12;39.80;52.50
36442;DHT22;64346;50.820;16.274;2023-06-26T07:22:39;39.50;53.40
36442;DHT22;64346;50.820;16.274;2023-06-26T07:25:07;39.00;52.10
36442;DHT22;64346;50.820;16.274;2023-06-26T07:27:35;38.60;53.50
36442;DHT22;64346;50.820;16.274;2023-06-26T07:30:03;38.10;53.10
36442;DHT22;64346;50.820;16.274;2023-06-26T07:32:31;37.80;54.10
36442;DHT22;64346;50.820;16.274;2023-06-26T07:34:59;37.60;54.60
36442;DHT22;64346;50.820;16.274;2023-06-26T07:37:28;37.40;55.00
36442;DHT22;64346;50.820;16.274;2023-06-26T07:39:56;36.90;55.40
36442;DHT22;64346;50.820;16.274;2023-06-26T07:42:23;36.40;54.70
36442;DHT22;64346;50.820;16.274;2023-06-26T07:44:50;36.10;56.10
36442;DHT22;64346;50.820;16.274;2023-06-26T07:47:19;35.80;56.10
36442;DHT22;64346;50.820;16.274;2023-06-26T07:49:50;35.70;56.30
36442;DHT22;64346;50.820;16.274;2023-06-26T07:52:18;35.70;56.70
36442;DHT22;64346;50.820;16.274;2023-06-26T07:54:46;35.40;55.60
36442;DHT22;64346;50.820;16.274;2023-06-26T07:57:13;35.10;56.70
36442;DHT22;64346;50.820;16.274;2023-06-26T07:59:40;35.00;57.70
36442;DHT22;64346;50.820;16.274;2023-06-26T08:02:08;34.90;57.80
36442;DHT22;64346;50.820;16.274;2023-06-26T08:04:37;34.90;57.80
36442;DHT22;64346;50.820;16.274;2023-06-26T08:07:05;35.00;58.20
36442;DHT22;64346;50.820;16.274;2023-06-26T08:09:35;35.00;57.90
36442;DHT22;64346;50.820;16.274;2023-06-26T08:12:03;35.00;57.90
36442;DHT22;64346;50.820;16.274;2023-06-26T08:14:35;34.80;57.20
36442;DHT22;64346;50.820;16.274;2023-06-26T08:17:04;34.60;58.00
36442;DHT22;64346;50.820;16.274;2023-06-26T08:19:34;34.30;58.90
36442;DHT22;64346;50.820;16.274;2023-06-26T08:22:01;34.00;58.60
36442;DHT22;64346;50.820;16.274;2023-06-26T08:24:29;33.80;58.40
36442;DHT22;64346;50.820;16.274;2023-06-26T08:26:56;33.40;59.00
36442;DHT22;64346;50.820;16.274;2023-06-26T08:29:23;32.90;60.40
36442;DHT22;64346;50.820;16.274;2023-06-26T08:31:53;32.60;60.60
36442;DHT22;64346;50.820;16.274;2023-06-26T08:34:20;32.70;62.50
36442;DHT22;64346;50.820;16.274;2023-06-26T08:36:48;32.80;61.80
36442;DHT22;64346;50.820;16.274;2023-06-26T08:39:18;32.90;61.40
36442;DHT22;64346;50.820;16.274;2023-06-26T08:41:45;33.00;61.60
36442;DHT22;64346;50.820;16.274;2023-06-26T08:44:12;33.20;60.50
36442;DHT22;64346;50.820;16.274;2023-06-26T08:46:40;33.30;60.70
36442;DHT22;64346;50.820;16.274;2023-06-26T08:52:02;33.50;60.10
36442;DHT22;64346;50.820;16.274;2023-06-26T08:54:34;33.40;59.80
36442;DHT22;64346;50.820;16.274;2023-06-26T08:57:05;33.30;59.10
36442;DHT22;64346;50.820;16.274;2023-06-26T08:59:34;33.20;60.30
36442;DHT22;64346;50.820;16.274;2023-06-26T09:02:01;33.10;60.30
36442;DHT22;64346;50.820;16.274;2023-06-26T09:04:32;33.00;60.60
36442;DHT22;64346;50.820;16.274;2023-06-26T09:07:04;33.00;61.50
36442;DHT22;64346;50.820;16.274;2023-06-26T09:09:34;32.80;61.70
36442;DHT22;64346;50.820;16.274;2023-06-26T09:12:02;32.50;61.70
36442;DHT22;64346;50.820;16.274;2023-06-26T09:14:30;32.20;62.20
36442;DHT22;64346;50.820;16.274;2023-06-26T09:16:59;31.90;62.70
36442;DHT22;64346;50.820;16.274;2023-06-26T09:19:28;31.70;63.10
36442;DHT22;64346;50.820;16.274;2023-06-26T09:21:55;31.60;63.70
36442;DHT22;64346;50.820;16.274;2023-06-26T09:24:23;31.70;63.80
36442;DHT22;64346;50.820;16.274;2023-06-26T09:26:51;31.80;63.00
36442;DHT22;64346;50.820;16.274;2023-06-26T09:29:22;31.90;62.90
36442;DHT22;64346;50.820;16.274;2023-06-26T09:31:51;31.90;63.30
36442;DHT22;64346;50.820;16.274;2023-06-26T09:34:19;32.00;67.80
36442;DHT22;64346;50.820;16.274;2023-06-26T09:36:48;32.30;68.10
36442;DHT22;64346;50.820;16.274;2023-06-26T09:39:20;32.30;68.80
36442;DHT22;64346;50.820;16.274;2023-06-26T09:41:50;32.10;67.90
36442;DHT22;64346;50.820;16.274;2023-06-26T09:44:20;31.90;69.60
36442;DHT22;64346;50.820;16.274;2023-06-26T09:46:50;31.60;65.90
36442;DHT22;64346;50.820;16.274;2023-06-26T09:49:17;31.40;67.90
36442;DHT22;64346;50.820;16.274;2023-06-26T09:51:45;31.40;68.40
36442;DHT22;64346;50.820;16.274;2023-06-26T09:54:15;31.40;68.20
36442;DHT22;64346;50.820;16.274;2023-06-26T09:56:43;31.40;70.40
36442;DHT22;64346;50.820;16.274;2023-06-26T09:59:13;31.20;70.70
36442;DHT22;64346;50.820;16.274;2023-06-26T10:01:45;31.00;68.80
36442;DHT22;64346;50.820;16.274;2023-06-26T10:04:13;30.80;68.60
36442;DHT22;64346;50.820;16.274;2023-06-26T10:06:49;30.70;68.00
36442;DHT22;64346;50.820;16.274;2023-06-26T10:09:20;30.40;69.40
36442;DHT22;64346;50.820;16.274;2023-06-26T10:11:56;30.10;68.90
36442;DHT22;64346;50.820;16.274;2023-06-26T10:14:27;29.80;70.20
36442;DHT22;64346;50.820;16.274;2023-06-26T10:16:58;29.70;72.10
36442;DHT22;64346;50.820;16.274;2023-06-26T10:19:28;29.50;72.40
36442;DHT22;64346;50.820;16.274;2023-06-26T10:22:01;29.30;73.00
36442;DHT22;64346;50.820;16.274;2023-06-26T10:24:33;29.20;70.70
36442;DHT22;64346;50.820;16.274;2023-06-26T10:27:20;29.30;73.60
36442;DHT22;64346;50.820;16.274;2023-06-26T10:29:58;29.20;71.90
36442;DHT22;64346;50.820;16.274;2023-06-26T10:32:27;29.10;71.30
36442;DHT22;64346;50.820;16.274;2023-06-26T10:34:56;29.00;73.80
36442;DHT22;64346;50.820;16.274;2023-06-26T10:37:49;28.80;74.60
36442;DHT22;64346;50.820;16.274;2023-06-26T10:40:28;28.70;74.60
36442;DHT22;64346;50.820;16.274;2023-06-26T10:43:09;28.50;74.30
36442;DHT22;64346;50.820;16.274;2023-06-26T10:45:42;28.20;74.50
36442;DHT22;64346;50.820;16.274;2023-06-26T10:48:14;28.10;75.60
36442;DHT22;64346;50.820;16.274;2023-06-26T10:50:42;28.00;76.60
36442;DHT22;64346;50.820;16.274;2023-06-26T11:03:39;28.30;74.90
36442;DHT22;64346;50.820;16.274;2023-06-26T11:06:15;28.10;75.50
36442;DHT22;64346;50.820;16.274;2023-06-26T11:11:17;27.70;75.20
36442;DHT22;64346;50.820;16.274;2023-06-26T11:13:46;27.50;75.70
36442;DHT22;64346;50.820;16.274;2023-06-26T11:16:17;27.30;77.70
36442;DHT22;64346;50.820;16.274;2023-06-26T11:18:45;27.20;78.70
36442;DHT22;64346;50.820;16.274;2023-06-26T11:21:13;27.10;79.20
36442;DHT22;64346;50.820;16.274;2023-06-26T11:23:45;27.20;81.60
36442;DHT22;64346;50.820;16.274;2023-06-26T11:26:20;27.30;78.70
36442;DHT22;64346;50.820;16.274;2023-06-26T11:28:54;27.60;79.30
36442;DHT22;64346;50.820;16.274;2023-06-26T11:31:26;27.80;78.30
36442;DHT22;64346;50.820;16.274;2023-06-26T11:33:54;28.00;78.50
36442;DHT22;64346;50.820;16.274;2023-06-26T11:36:23;28.10;75.70
36442;DHT22;64346;50.820;16.274;2023-06-26T11:38:59;28.10;75.70
36442;DHT22;64346;50.820;16.274;2023-06-26T11:41:33;28.00;76.50
36442;DHT22;64346;50.820;16.274;2023-06-26T11:44:05;28.00;76.30
36442;DHT22;64346;50.820;16.274;2023-06-26T11:46:37;27.90;76.30
36442;DHT22;64346;50.820;16.274;2023-06-26T11:49:06;27.90;76.10
36442;DHT22;64346;50.820;16.274;2023-06-26T11:51:34;27.80;76.70
36442;DHT22;64346;50.820;16.274;2023-06-26T11:54:03;27.80;75.90
36442;DHT22;64346;50.820;16.274;2023-06-26T11:56:31;27.70;75.30
36442;DHT22;64346;50.820;16.274;2023-06-26T11:59:02;27.70;75.80
36442;DHT22;64346;50.820;16.274;2023-06-26T12:01:43;27.60;76.60
36442;DHT22;64346;50.820;16.274;2023-06-26T12:04:12;27.50;76.80
36442;DHT22;64346;50.820;16.274;2023-06-26T12:06:45;27.40;76.80
36442;DHT22;64346;50.820;16.274;2023-06-26T12:09:13;27.50;76.20
36442;DHT22;64346;50.820;16.274;2023-06-26T12:11:43;27.60;76.90
36442;DHT22;64346;50.820;16.274;2023-06-26T12:14:13;27.70;76.90
36442;DHT22;64346;50.820;16.274;2023-06-26T12:16:42;27.90;75.60
36442;DHT22;64346;50.820;16.274;2023-06-26T12:19:10;28.00;75.00
36442;DHT22;64346;50.820;16.274;2023-06-26T12:24:07;27.90;76.40
36442;DHT22;64346;50.820;16.274;2023-06-26T12:26:37;27.90;75.70
36442;DHT22;64346;50.820;16.274;2023-06-26T12:29:06;27.70;75.00
36442;DHT22;64346;50.820;16.274;2023-06-26T12:31:35;27.70;75.90
36442;DHT22;64346;50.820;16.274;2023-06-26T12:34:12;27.60;75.80
36442;DHT22;64346;50.820;16.274;2023-06-26T12:36:49;27.70;77.00
36442;DHT22;64346;50.820;16.274;2023-06-26T12:39:21;27.80;78.00
36442;DHT22;64346;50.820;16.274;2023-06-26T12:41:51;27.90;77.60
36442;DHT22;64346;50.820;16.274;2023-06-26T12:44:25;27.80;76.00
36442;DHT22;64346;50.820;16.274;2023-06-26T12:46:58;27.80;75.50
36442;DHT22;64346;50.820;16.274;2023-06-26T12:49:38;27.80;75.00
36442;DHT22;64346;50.820;16.274;2023-06-26T12:52:13;27.70;75.50
36442;DHT22;64346;50.820;16.274;2023-06-26T12:54:44;27.60;77.00
36442;DHT22;64346;50.820;16.274;2023-06-26T12:57:12;27.50;75.70
36442;DHT22;64346;50.820;16.274;2023-06-26T12:59:40;27.50;75.40
36442;DHT22;64346;50.820;16.274;2023-06-26T13:02:10;27.40;76.40
36442;DHT22;64346;50.820;16.274;2023-06-26T13:04:37;27.30;76.40
36442;DHT22;64346;50.820;16.274;2023-06-26T13:07:09;27.40;77.30
36442;DHT22;64346;50.820;16.274;2023-06-26T13:09:39;27.40;77.30
36442;DHT22;64346;50.820;16.274;2023-06-26T13:12:07;27.40;76.80
36442;DHT22;64346;50.820;16.274;2023-06-26T13:14:37;27.40;77.00
36442;DHT22;64346;50.820;16.274;2023-06-26T13:17:15;27.40;76.80
36442;DHT22;64346;50.820;16.274;2023-06-26T13:19:42;27.40;76.30
36442;DHT22;64346;50.820;16.274;2023-06-26T13:22:10;27.40;76.70
36442;DHT22;64346;50.820;16.274;2023-06-26T13:24:39;27.50;76.80
36442;DHT22;64346;50.820;16.274;2023-06-26T13:27:07;27.60;76.90
36442;DHT22;64346;50.820;16.274;2023-06-26T13:29:36;27.70;77.40
36442;DHT22;64346;50.820;16.274;2023-06-26T13:32:04;27.90;75.40
36442;DHT22;64346;50.820;16.274;2023-06-26T13:34:35;28.00;76.30
36442;DHT22;64346;50.820;16.274;2023-06-26T13:37:05;28.10;75.90
36442;DHT22;64346;50.820;16.274;2023-06-26T13:39:32;28.30;75.50
36442;DHT22;64346;50.820;16.274;2023-06-26T13:42:00;28.40;74.50
36442;DHT22;64346;50.820;16.274;2023-06-26T13:44:33;28.40;74.10
36442;DHT22;64346;50.820;16.274;2023-06-26T13:47:18;28.50;74.00
36442;DHT22;64346;50.820;16.274;2023-06-26T13:49:45;28.60;73.80
36442;DHT22;64346;50.820;16.274;2023-06-26T13:52:13;28.60;74.10
36442;DHT22;64346;50.820;16.274;2023-06-26T13:54:42;28.70;74.00
36442;DHT22;64346;50.820;16.274;2023-06-26T13:57:10;28.70;74.20
36442;DHT22;64346;50.820;16.274;2023-06-26T13:59:39;28.60;74.10
36442;DHT22;64346;50.820;16.274;2023-06-26T14:02:08;28.50;74.20
36442;DHT22;64346;50.820;16.274;2023-06-26T14:04:35;28.30;74.70
36442;DHT22;64346;50.820;16.274;2023-06-26T14:07:05;28.20;75.90
36442;DHT22;64346;50.820;16.274;2023-06-26T14:09:32;28.10;76.40
36442;DHT22;64346;50.820;16.274;2023-06-26T14:12:00;28.00;76.60
36442;DHT22;64346;50.820;16.274;2023-06-26T14:14:27;28.00;77.70
36442;DHT22;64346;50.820;16.274;2023-06-26T14:16:55;27.90;78.50
36442;DHT22;64346;50.820;16.274;2023-06-26T14:19:22;27.80;78.70
36442;DHT22;64346;50.820;16.274;2023-06-26T14:21:50;27.70;79.10
36442;DHT22;64346;50.820;16.274;2023-06-26T14:24:17;27.60;79.20
36442;DHT22;64346;50.820;16.274;2023-06-26T14:26:45;27.50;79.40
36442;DHT22;64346;50.820;16.274;2023-06-26T14:29:12;27.50;80.50
36442;DHT22;64346;50.820;16.274;2023-06-26T14:31:39;27.50;80.00
36442;DHT22;64346;50.820;16.274;2023-06-26T14:34:07;27.50;80.50
36442;DHT22;64346;50.820;16.274;2023-06-26T14:36:40;27.40;79.90
36442;DHT22;64346;50.820;16.274;2023-06-26T14:39:07;27.40;79.00
36442;DHT22;64346;50.820;16.274;2023-06-26T14:41:37;27.40;79.00
36442;DHT22;64346;50.820;16.274;2023-06-26T14:44:05;27.30;78.90
36442;DHT22;64346;50.820;16.274;2023-06-26T14:46:33;27.30;79.70
36442;DHT22;64346;50.820;16.274;2023-06-26T14:49:03;27.30;79.50
36442;DHT22;64346;50.820;16.274;2023-06-26T14:51:30;27.30;80.10
36442;DHT22;64346;50.820;16.274;2023-06-26T14:54:00;27.30;79.90
36442;DHT22;64346;50.820;16.274;2023-06-26T14:56:30;27.20;79.90
36442;DHT22;64346;50.820;16.274;2023-06-26T14:59:02;27.10;80.20
36442;DHT22;64346;50.820;16.274;2023-06-26T15:01:30;27.10;79.40
36442;DHT22;64346;50.820;16.274;2023-06-26T15:03:57;27.00;79.60
36442;DHT22;64346;50.820;16.274;2023-06-26T15:06:25;27.00;80.10
36442;DHT22;64346;50.820;16.274;2023-06-26T15:08:52;27.00;79.70
36442;DHT22;64346;50.820;16.274;2023-06-26T15:11:19;27.00;79.80
36442;DHT22;64346;50.820;16.274;2023-06-26T15:13:47;27.00;79.70
36442;DHT22;64346;50.820;16.274;2023-06-26T15:16:17;26.90;80.20
36442;DHT22;64346;50.820;16.274;2023-06-26T15:18:46;26.80;81.10
36442;DHT22;64346;50.820;16.274;2023-06-26T15:21:13;26.80;82.20
36442;DHT22;64346;50.820;16.274;2023-06-26T15:23:40;26.80;80.30
36442;DHT22;64346;50.820;16.274;2023-06-26T15:26:08;26.80;79.60
36442;DHT22;64346;50.820;16.274;2023-06-26T15:28:35;26.80;79.50
36442;DHT22;64346;50.820;16.274;2023-06-26T15:31:04;26.80;79.10
36442;DHT22;64346;50.820;16.274;2023-06-26T15:34:04;26.80;79.50
36442;DHT22;64346;50.820;16.274;2023-06-26T15:36:56;26.80;79.40
36442;DHT22;64346;50.820;16.274;2023-06-26T15:39:25;26.80;79.20
36442;DHT22;64346;50.820;16.274;2023-06-26T15:41:55;26.80;79.00
36442;DHT22;64346;50.820;16.274;2023-06-26T15:44:23;26.80;78.90
36442;DHT22;64346;50.820;16.274;2023-06-26T15:46:53;26.90;79.00
36442;DHT22;64346;50.820;16.274;2023-06-26T15:49:20;26.80;78.50
36442;DHT22;64346;50.820;16.274;2023-06-26T15:51:47;26.90;79.10